Time;durP1;ratioP1;P1;durP2;ratioP2;P2;SDS_P1;SDS_P2;PMS_P1;PMS_P2;Temp;Humidity;BMP_temperature;BMP_pressure;BME280_temperature;BME280_humidity;BME280_pressure;Samples;Min_cycle;Max_cycle;Signal;HPM_P1;HPM_P2
2022/10/13 00:02:11;;;;;;;85.10;17.60;;;10.30;70.50;;;;;;5000477;28;46365;-72
2022/10/13 00:04:37;;;;;;;114.13;18.27;;;10.30;70.70;;;;;;4998667;28;46562;-72
2022/10/13 00:07:03;;;;;;;119.47;18.73;;;10.30;70.80;;;;;;4999040;28;47294;-72
2022/10/13 00:09:28;;;;;;;94.37;18.33;;;10.30;70.80;;;;;;4996177;28;46367;-72
2022/10/13 00:11:56;;;;;;;61.00;17.80;;;10.30;71.00;;;;;;5003166;28;46387;-72
2022/10/13 00:14:22;;;;;;;65.67;18.80;;;10.20;71.20;;;;;;5001389;28;46266;-72
2022/10/13 00:16:47;;;;;;;77.57;16.63;;;10.20;71.40;;;;;;5000279;28;46764;-71
2022/10/13 00:19:13;;;;;;;49.03;17.13;;;10.20;71.50;;;;;;5002111;28;46463;-72
2022/10/13 00:21:39;;;;;;;58.50;16.90;;;10.20;71.50;;;;;;5003355;28;46377;-72
2022/10/13 00:24:05;;;;;;;57.60;16.57;;;10.20;71.40;;;;;;5002072;28;46475;-72
2022/10/13 00:26:30;;;;;;;56.10;17.83;;;10.20;71.10;;;;;;5002332;28;46445;-72
2022/10/13 00:28:56;;;;;;;32.40;15.80;;;10.20;70.90;;;;;;5005131;28;46497;-72
2022/10/13 00:31:27;;;;;;;49.67;16.30;;;10.20;71.00;;;;;;5001276;28;45959;-72
2022/10/13 00:33:54;;;;;;;34.97;15.50;;;10.10;71.00;;;;;;4998718;28;46443;-73
2022/10/13 00:36:21;;;;;;;44.77;16.50;;;10.10;71.10;;;;;;5003397;28;46605;-71
2022/10/13 00:38:47;;;;;;;46.90;15.90;;;10.00;71.40;;;;;;5008194;28;46229;-73
2022/10/13 00:41:13;;;;;;;50.60;16.90;;;9.90;72.60;;;;;;5018256;28;45831;-72
2022/10/13 00:43:57;;;;;;;58.77;16.50;;;9.90;72.70;;;;;;5001943;28;46351;-72
2022/10/13 00:46:26;;;;;;;44.03;17.07;;;9.90;72.90;;;;;;4999853;28;46715;-71
2022/10/13 00:48:54;;;;;;;42.70;17.47;;;9.90;73.20;;;;;;5001504;28;46451;-72
2022/10/13 00:51:24;;;;;;;44.40;17.37;;;9.90;73.40;;;;;;5003690;28;46295;-72
2022/10/13 00:53:51;;;;;;;65.30;17.70;;;9.90;73.20;;;;;;5002368;28;46418;-72
2022/10/13 00:56:18;;;;;;;90.47;16.87;;;9.90;72.80;;;;;;5002993;28;46375;-72
2022/10/13 00:58:46;;;;;;;122.87;19.27;;;10.00;71.70;;;;;;5001237;28;46327;-73
2022/10/13 01:01:11;;;;;;;101.03;18.17;;;9.90;72.50;;;;;;5003596;28;46375;-72
2022/10/13 01:03:37;;;;;;;82.67;17.70;;;9.90;72.40;;;;;;5000407;28;46392;-73
2022/10/13 01:06:04;;;;;;;89.73;18.60;;;9.90;73.70;;;;;;5001452;28;46462;-72
2022/10/13 01:08:30;;;;;;;109.57;20.57;;;9.90;72.70;;;;;;5002044;28;46414;-72
2022/10/13 01:11:30;;;;;;;84.90;20.10;;;9.90;72.70;;;;;;5002304;28;46387;-72
2022/10/13 01:14:05;;;;;;;85.00;17.90;;;9.90;72.40;;;;;;4999050;28;47169;-72
2022/10/13 01:16:42;;;;;;;104.53;18.90;;;10.00;71.60;;;;;;5002450;28;47297;-72
2022/10/13 01:19:20;;;;;;;92.90;18.80;;;10.00;71.50;;;;;;5001759;28;46502;-71
2022/10/13 01:22:15;;;;;;;100.73;18.53;;;10.00;71.50;;;;;;5000853;28;46378;-72
2022/10/13 01:24:56;;;;;;;69.03;17.60;;;10.00;71.70;;;;;;5000410;28;46411;-72
2022/10/13 01:27:33;;;;;;;105.53;19.17;;;10.00;71.70;;;;;;5002068;28;46487;-72
2022/10/13 01:30:07;;;;;;;63.30;19.23;;;10.00;71.50;;;;;;5015986;28;46435;-72
2022/10/13 01:32:53;;;;;;;82.83;18.70;;;10.00;71.40;;;;;;5002000;28;45893;-71
2022/10/13 01:35:40;;;;;;;55.67;17.53;;;10.10;71.50;;;;;;5000879;28;46422;-72
2022/10/13 01:38:23;;;;;;;61.57;17.00;;;10.10;71.50;;;;;;4999725;28;46606;-72
2022/10/13 01:40:57;;;;;;;49.60;17.93;;;10.10;71.50;;;;;;5002420;28;45864;-72
2022/10/13 01:43:35;;;;;;;59.87;17.40;;;10.10;71.40;;;;;;5001819;28;46363;-71
2022/10/13 01:46:30;;;;;;;48.73;16.57;;;10.20;71.50;;;;;;5006764;28;46311;-71
2022/10/13 01:49:00;;;;;;;39.10;15.87;;;10.10;71.40;;;;;;5000853;28;46633;-72
2022/10/13 01:51:29;;;;;;;41.37;15.07;;;10.10;71.40;;;;;;4999968;28;46390;-71
2022/10/13 01:53:55;;;;;;;43.07;15.97;;;10.10;71.60;;;;;;5002268;28;46383;-72
2022/10/13 01:56:21;;;;;;;37.83;15.73;;;10.10;71.50;;;;;;5002574;28;46233;-71
2022/10/13 01:58:49;;;;;;;39.13;15.10;;;10.10;71.50;;;;;;5001230;28;46390;-72
2022/10/13 02:01:18;;;;;;;38.30;15.70;;;10.10;71.40;;;;;;5000392;28;46390;-72
2022/10/13 02:03:59;;;;;;;105.90;15.70;;;10.00;71.30;;;;;;5001991;28;46434;-70
2022/10/13 02:06:35;;;;;;;32.20;13.73;;;9.90;72.80;;;;;;5001082;28;46424;-72
2022/10/13 02:09:14;;;;;;;106.67;15.77;;;9.80;73.20;;;;;;5001493;28;47097;-72
2022/10/13 02:11:50;;;;;;;203.70;18.20;;;9.70;73.50;;;;;;5002552;28;46427;-73
2022/10/13 02:14:20;;;;;;;99.03;16.07;;;9.60;73.50;;;;;;4999571;28;46394;-72
2022/10/13 02:16:48;;;;;;;30.47;13.83;;;9.60;73.60;;;;;;4998774;28;46529;-72
2022/10/13 02:19:16;;;;;;;32.17;15.43;;;9.80;73.30;;;;;;5000850;28;46339;-72
2022/10/13 02:21:42;;;;;;;18.03;13.13;;;9.80;72.60;;;;;;4998783;28;46351;-72
2022/10/13 02:24:09;;;;;;;37.00;24.90;;;9.90;72.10;;;;;;5001417;28;46335;-72
2022/10/13 02:26:35;;;;;;;54.57;32.60;;;10.10;70.50;;;;;;5001599;28;46574;-72
2022/10/13 02:29:09;;;;;;;28.97;21.50;;;10.10;70.00;;;;;;5001463;28;47121;-72
2022/10/13 02:31:35;;;;;;;23.30;16.10;;;10.20;69.60;;;;;;4999025;28;46307;-72
2022/10/13 02:34:01;;;;;;;22.17;13.67;;;10.30;69.40;;;;;;5000782;28;46435;-72
2022/10/13 02:36:26;;;;;;;19.10;12.50;;;10.30;69.10;;;;;;4999796;28;46416;-72
2022/10/13 02:38:52;;;;;;;16.77;11.90;;;10.30;69.00;;;;;;5001455;28;46292;-71
2022/10/13 02:41:18;;;;;;;17.00;12.57;;;10.30;68.80;;;;;;5002652;28;46413;-72
2022/10/13 02:43:43;;;;;;;15.00;11.43;;;10.40;68.80;;;;;;5005143;28;46458;-72
2022/10/13 02:46:09;;;;;;;23.20;14.03;;;10.40;68.60;;;;;;4999495;28;46657;-72
2022/10/13 02:48:34;;;;;;;13.67;11.00;;;10.40;68.50;;;;;;5001524;28;46382;-72
2022/10/13 02:51:00;;;;;;;19.13;12.87;;;10.40;68.60;;;;;;5001529;28;46394;-71
2022/10/13 02:53:25;;;;;;;15.03;10.17;;;10.40;68.80;;;;;;5001326;28;46375;-72
2022/10/13 02:55:51;;;;;;;15.20;11.07;;;10.40;69.00;;;;;;5000062;28;46363;-72
2022/10/13 02:58:16;;;;;;;17.57;11.87;;;10.30;68.90;;;;;;4999627;28;47028;-72
2022/10/13 03:00:42;;;;;;;17.47;11.20;;;10.40;68.80;;;;;;5004562;28;46387;-72
2022/10/13 03:03:10;;;;;;;14.70;10.53;;;10.50;68.70;;;;;;5007318;28;45778;-71
2022/10/13 03:05:35;;;;;;;16.60;12.20;;;10.60;68.30;;;;;;4999473;28;46465;-71
2022/10/13 03:08:01;;;;;;;15.83;11.90;;;10.60;69.30;;;;;;5000135;28;46380;-72
2022/10/13 03:10:27;;;;;;;16.10;11.43;;;10.70;68.00;;;;;;5001452;28;45816;-71
2022/10/13 03:12:54;;;;;;;16.43;11.77;;;10.80;68.00;;;;;;5001254;28;46450;-72
2022/10/13 03:15:20;;;;;;;21.53;12.03;;;10.80;67.70;;;;;;4998385;28;46671;-72
2022/10/13 03:17:45;;;;;;;15.47;11.10;;;10.90;67.70;;;;;;4999424;28;46394;-73
2022/10/13 03:20:11;;;;;;;17.17;12.43;;;10.90;67.90;;;;;;4999802;28;46289;-72
2022/10/13 03:22:36;;;;;;;19.77;12.43;;;10.90;67.90;;;;;;5001377;28;46323;-72
2022/10/13 03:25:02;;;;;;;17.47;11.73;;;11.00;68.00;;;;;;4998968;28;46575;-72
2022/10/13 03:27:28;;;;;;;17.47;12.33;;;11.10;67.90;;;;;;4999108;28;47076;-72
2022/10/13 03:29:54;;;;;;;15.83;11.17;;;11.10;67.90;;;;;;5000589;28;46407;-73
2022/10/13 03:32:19;;;;;;;16.87;11.90;;;11.20;67.90;;;;;;4999033;28;46454;-72
2022/10/13 03:34:45;;;;;;;16.13;11.67;;;11.20;67.70;;;;;;4998181;28;46252;-72
2022/10/13 03:37:10;;;;;;;15.97;10.87;;;11.20;67.60;;;;;;4999242;28;46446;-72
2022/10/13 03:39:36;;;;;;;18.80;12.20;;;11.30;67.70;;;;;;5001096;28;46476;-73
2022/10/13 03:42:01;;;;;;;19.53;12.10;;;11.30;67.70;;;;;;4998973;28;45848;-72
2022/10/13 03:44:27;;;;;;;17.77;12.30;;;11.30;67.60;;;;;;5001165;28;46617;-72
2022/10/13 03:46:53;;;;;;;19.30;12.23;;;11.30;67.60;;;;;;4997965;28;46336;-73
2022/10/13 03:49:18;;;;;;;38.53;11.87;;;11.40;67.60;;;;;;5000960;28;45977;-72
2022/10/13 03:51:44;;;;;;;23.10;12.30;;;11.40;67.60;;;;;;4998925;28;46562;-72
2022/10/13 03:54:11;;;;;;;17.03;11.43;;;11.40;67.60;;;;;;4998926;28;46371;-72
2022/10/13 03:56:38;;;;;;;15.13;11.03;;;11.40;67.80;;;;;;5000251;28;46643;-72
2022/10/13 03:59:04;;;;;;;25.70;12.87;;;11.50;67.80;;;;;;5000696;28;46392;-73
2022/10/13 04:01:31;;;;;;;20.00;12.30;;;11.50;67.70;;;;;;4999352;28;45840;-72
2022/10/13 04:03:58;;;;;;;18.63;12.37;;;11.60;67.60;;;;;;4999020;28;46697;-73
2022/10/13 04:06:25;;;;;;;22.13;13.57;;;11.60;67.40;;;;;;4997142;28;46635;-72
2022/10/13 04:08:51;;;;;;;21.97;13.13;;;11.70;67.40;;;;;;5000748;28;46322;-72
2022/10/13 04:11:17;;;;;;;22.13;12.00;;;11.70;67.40;;;;;;4999578;28;46645;-74
2022/10/13 04:13:43;;;;;;;23.03;13.23;;;11.70;67.40;;;;;;5001646;28;46598;-73
2022/10/13 04:16:14;;;;;;;19.23;12.37;;;11.70;67.40;;;;;;4997423;28;48397;-73
2022/10/13 04:18:40;;;;;;;19.73;13.87;;;11.80;67.30;;;;;;4999603;28;46569;-72
2022/10/13 04:21:09;;;;;;;19.90;12.70;;;11.80;67.20;;;;;;4999433;28;46439;-72
2022/10/13 04:23:36;;;;;;;25.90;13.57;;;11.80;67.10;;;;;;5002125;28;46493;-72
2022/10/13 04:26:02;;;;;;;22.70;14.20;;;11.90;67.20;;;;;;4997973;28;46386;-72
2022/10/13 04:28:28;;;;;;;25.10;14.23;;;11.90;67.30;;;;;;5000941;28;46418;-72
2022/10/13 04:30:54;;;;;;;24.57;14.00;;;11.90;67.30;;;;;;4997727;28;46615;-72
2022/10/13 04:33:20;;;;;;;29.90;16.30;;;12.00;67.20;;;;;;4997061;22;46880;-84
2022/10/13 04:35:45;;;;;;;32.27;17.27;;;12.00;67.20;;;;;;4959044;28;48235;-84
2022/10/13 04:38:11;;;;;;;28.70;19.33;;;12.10;67.10;;;;;;4959888;28;48584;-84
2022/10/13 04:40:36;;;;;;;28.27;16.63;;;12.10;67.40;;;;;;4985895;28;46683;-84
2022/10/13 04:43:02;;;;;;;31.30;17.80;;;12.10;67.50;;;;;;4965850;28;46194;-83
2022/10/13 04:45:28;;;;;;;33.73;20.27;;;12.20;67.50;;;;;;4965677;28;49105;-83
2022/10/13 04:47:53;;;;;;;23.97;15.37;;;12.20;67.60;;;;;;4966223;28;46898;-83
2022/10/13 04:50:19;;;;;;;47.43;24.10;;;12.20;67.50;;;;;;4964628;28;52571;-83
2022/10/13 04:52:44;;;;;;;28.17;17.30;;;12.30;67.60;;;;;;4964146;28;46346;-84
2022/10/13 04:55:10;;;;;;;24.30;15.80;;;12.30;67.70;;;;;;4982127;28;50638;-86
2022/10/13 04:57:36;;;;;;;25.07;15.77;;;12.30;67.80;;;;;;4971791;28;46351;-85
2022/10/13 05:00:06;;;;;;;28.60;17.73;;;12.40;67.80;;;;;;4980334;28;45842;-84
2022/10/13 05:02:33;;;;;;;27.93;15.77;;;12.40;67.60;;;;;;4993740;28;46935;-85
2022/10/13 05:04:58;;;;;;;27.73;17.20;;;12.50;67.40;;;;;;4977611;28;48115;-84
2022/10/13 05:07:24;;;;;;;32.03;17.87;;;12.50;67.30;;;;;;4993849;28;46532;-83
2022/10/13 05:09:50;;;;;;;32.87;17.67;;;12.50;67.30;;;;;;4991170;28;45778;-85
2022/10/13 05:12:16;;;;;;;33.80;19.07;;;12.50;67.40;;;;;;4984810;28;45898;-87
2022/10/13 05:14:41;;;;;;;35.00;19.20;;;12.50;67.30;;;;;;4969709;28;48822;-87
2022/10/13 05:17:07;;;;;;;33.53;19.90;;;12.50;67.40;;;;;;4967808;28;55784;-84
2022/10/13 05:19:33;;;;;;;38.77;20.80;;;12.50;67.70;;;;;;4968158;28;46572;-85
2022/10/13 05:21:58;;;;;;;45.07;20.80;;;12.50;68.00;;;;;;4970507;28;46669;-85
2022/10/13 05:24:35;;;;;;;48.17;21.33;;;12.50;67.90;;;;;;4968645;28;48206;-85
2022/10/13 05:27:10;;;;;;;47.70;21.67;;;12.50;68.10;;;;;;4968009;28;46678;-84
2022/10/13 05:29:36;;;;;;;41.13;20.97;;;12.60;68.10;;;;;;4969891;28;46388;-84
2022/10/13 05:32:02;;;;;;;41.23;23.50;;;12.70;68.10;;;;;;4989939;28;45850;-84
2022/10/13 05:34:28;;;;;;;60.27;29.37;;;12.70;68.00;;;;;;4968240;28;48158;-84
2022/10/13 05:36:53;;;;;;;62.33;33.50;;;12.80;67.90;;;;;;4972949;28;46455;-84
2022/10/13 05:39:19;;;;;;;46.93;27.53;;;12.70;68.00;;;;;;4968920;28;46092;-83
2022/10/13 05:41:44;;;;;;;44.87;24.90;;;12.80;67.90;;;;;;4985018;28;46895;-84
2022/10/13 05:44:10;;;;;;;37.83;21.87;;;12.90;67.90;;;;;;4990800;28;47632;-85
2022/10/13 05:46:36;;;;;;;40.77;22.20;;;12.90;67.80;;;;;;4970067;28;46498;-83
2022/10/13 05:49:02;;;;;;;37.43;20.67;;;13.00;67.90;;;;;;4988321;28;46430;-84
2022/10/13 05:51:33;;;;;;;42.07;21.87;;;13.00;67.80;;;;;;4989877;28;46655;-87
2022/10/13 05:54:06;;;;;;;36.73;20.87;;;13.00;67.70;;;;;;4964336;28;48583;-86
2022/10/13 05:56:37;;;;;;;44.00;23.30;;;13.00;67.70;;;;;;4985059;28;46244;-86
2022/10/13 05:59:06;;;;;;;39.20;21.27;;;13.10;67.60;;;;;;4983774;28;46433;-86
2022/10/13 06:01:39;;;;;;;44.20;21.03;;;13.10;67.50;;;;;;4971372;28;45899;-87
2022/10/13 06:04:10;;;;;;;37.10;22.27;;;13.10;67.50;;;;;;4989728;28;47371;-86
2022/10/13 06:06:36;;;;;;;50.10;24.30;;;13.10;67.30;;;;;;4968413;28;46472;-86
2022/10/13 06:09:02;;;;;;;47.77;22.50;;;13.20;67.40;;;;;;4970721;28;46323;-83
2022/10/13 06:11:27;;;;;;;35.00;20.17;;;13.20;67.40;;;;;;4986459;28;46521;-85
2022/10/13 06:13:53;;;;;;;37.50;20.53;;;13.20;67.40;;;;;;4968994;28;48126;-86
2022/10/13 06:16:18;;;;;;;44.53;21.83;;;13.20;67.40;;;;;;4965313;28;46534;-85
2022/10/13 06:18:44;;;;;;;34.47;19.13;;;13.30;67.50;;;;;;4972611;28;45836;-84
2022/10/13 06:21:09;;;;;;;71.07;38.57;;;13.30;67.50;;;;;;4989769;28;46277;-84
2022/10/13 06:23:35;;;;;;;40.13;21.90;;;13.30;67.80;;;;;;4969518;28;49339;-85
2022/10/13 06:26:00;;;;;;;51.47;27.43;;;13.30;67.70;;;;;;4968161;28;46230;-85
2022/10/13 06:28:26;;;;;;;52.73;27.00;;;13.40;68.20;;;;;;4960267;28;46467;-83
2022/10/13 06:30:53;;;;;;;39.53;20.30;;;13.40;68.20;;;;;;4959738;28;46441;-85
2022/10/13 06:33:19;;;;;;;37.10;19.70;;;13.40;68.20;;;;;;4983690;28;47427;-85
2022/10/13 06:35:45;;;;;;;33.67;19.67;;;13.50;67.80;;;;;;4965928;28;47004;-83
2022/10/13 06:38:11;;;;;;;33.43;20.50;;;13.50;67.70;;;;;;4965383;28;46573;-84
2022/10/13 06:40:36;;;;;;;41.20;22.30;;;13.60;67.70;;;;;;4969818;28;46503;-84
2022/10/13 06:43:02;;;;;;;41.13;21.20;;;13.60;67.70;;;;;;4971385;28;48163;-83
2022/10/13 06:45:28;;;;;;;41.63;24.27;;;13.70;67.90;;;;;;4968285;28;46090;-85
2022/10/13 06:47:55;;;;;;;39.87;25.70;;;13.70;67.80;;;;;;4966708;28;46605;-83
2022/10/13 06:50:21;;;;;;;38.90;22.80;;;13.70;67.80;;;;;;4982571;28;46591;-82
2022/10/13 06:52:47;;;;;;;43.00;20.53;;;13.80;67.90;;;;;;4965640;28;48397;-84
2022/10/13 06:55:13;;;;;;;45.57;22.27;;;13.90;68.00;;;;;;4981996;28;46635;-84
2022/10/13 06:57:38;;;;;;;37.87;20.57;;;13.90;68.00;;;;;;4982736;28;47023;-85
2022/10/13 07:00:05;;;;;;;38.43;22.27;;;13.90;68.10;;;;;;4983798;28;45915;-86
2022/10/13 07:02:31;;;;;;;36.33;21.80;;;14.00;68.10;;;;;;4983545;28;46445;-84
2022/10/13 07:04:57;;;;;;;32.70;20.03;;;14.00;68.10;;;;;;4985935;28;46573;-83
2022/10/13 07:07:22;;;;;;;39.87;20.40;;;14.10;68.20;;;;;;4980337;28;46622;-84
2022/10/13 07:09:48;;;;;;;39.53;19.37;;;14.20;68.30;;;;;;4988105;28;46505;-84
2022/10/13 07:12:14;;;;;;;34.90;19.50;;;14.30;68.40;;;;;;4987905;28;46954;-84
2022/10/13 07:14:39;;;;;;;30.97;18.67;;;14.30;68.40;;;;;;4985497;28;46754;-84
2022/10/13 07:17:05;;;;;;;33.80;19.70;;;14.40;68.40;;;;;;4972349;28;46328;-85
2022/10/13 07:19:31;;;;;;;34.63;20.17;;;14.40;68.50;;;;;;4986773;28;45835;-84
2022/10/13 07:21:56;;;;;;;37.60;20.97;;;14.50;68.20;;;;;;4968333;28;49118;-83
2022/10/13 07:24:22;;;;;;;36.50;20.53;;;14.60;67.70;;;;;;4981709;28;45876;-84
2022/10/13 07:26:48;;;;;;;37.70;22.30;;;14.60;67.50;;;;;;4968096;28;46456;-83
2022/10/13 07:29:15;;;;;;;34.30;19.50;;;14.70;67.50;;;;;;4966328;28;46800;-84
2022/10/13 07:31:42;;;;;;;43.93;21.37;;;14.70;67.50;;;;;;4983225;28;46331;-84
2022/10/13 07:34:08;;;;;;;37.20;21.00;;;14.70;67.50;;;;;;4965818;28;46433;-84
2022/10/13 07:36:34;;;;;;;40.50;20.83;;;14.70;67.30;;;;;;4981844;28;46430;-86
2022/10/13 07:39:01;;;;;;;38.13;19.87;;;14.80;67.30;;;;;;4967034;28;45969;-85
2022/10/13 07:41:27;;;;;;;33.80;19.60;;;14.80;67.00;;;;;;4982766;28;48540;-86
2022/10/13 07:43:57;;;;;;;34.37;19.70;;;14.90;67.00;;;;;;4969790;28;46262;-85
2022/10/13 07:46:23;;;;;;;33.97;20.87;;;14.90;67.10;;;;;;4965739;28;45833;-83
2022/10/13 07:48:50;;;;;;;38.93;19.30;;;15.00;67.00;;;;;;4966143;28;46422;-84
2022/10/13 07:51:15;;;;;;;96.23;55.43;;;15.10;66.90;;;;;;4983117;28;47627;-85
2022/10/13 07:53:42;;;;;;;35.70;21.93;;;15.20;66.80;;;;;;4967763;28;46656;-82
2022/10/13 07:56:10;;;;;;;37.13;22.70;;;15.30;66.50;;;;;;4984878;28;46471;-85
2022/10/13 07:58:37;;;;;;;39.43;21.53;;;15.40;66.10;;;;;;4971831;28;46639;-85
2022/10/13 08:01:04;;;;;;;35.13;18.50;;;15.50;66.00;;;;;;4990861;28;48104;-84
2022/10/13 08:03:30;;;;;;;28.53;18.83;;;15.50;65.80;;;;;;4991868;28;46124;-84
2022/10/13 08:05:59;;;;;;;37.87;20.20;;;15.50;65.80;;;;;;4992876;28;46317;-85
2022/10/13 08:08:25;;;;;;;31.93;18.13;;;15.60;66.10;;;;;;4968343;28;45996;-84
2022/10/13 08:10:50;;;;;;;37.30;21.43;;;15.50;66.10;;;;;;4982755;28;47651;-84
2022/10/13 08:13:16;;;;;;;37.50;21.40;;;15.50;66.30;;;;;;4982044;28;46796;-84
2022/10/13 08:15:43;;;;;;;35.03;18.40;;;15.50;66.30;;;;;;4965889;28;46576;-85
2022/10/13 08:18:10;;;;;;;33.20;19.73;;;15.50;66.30;;;;;;4964548;28;46494;-84
2022/10/13 08:20:43;;;;;;;32.80;18.97;;;15.50;66.10;;;;;;4967286;28;48253;-84
2022/10/13 08:23:09;;;;;;;37.63;21.43;;;15.50;65.90;;;;;;4968002;28;46732;-82
2022/10/13 08:25:37;;;;;;;46.97;19.93;;;15.50;66.20;;;;;;4964537;28;46308;-85
2022/10/13 08:28:04;;;;;;;29.37;18.23;;;15.50;66.00;;;;;;4987816;28;46464;-85
2022/10/13 08:30:29;;;;;;;28.30;17.93;;;15.50;66.10;;;;;;4980877;28;49106;-85
2022/10/13 08:32:55;;;;;;;31.03;17.63;;;15.50;66.10;;;;;;4972155;28;46731;-83
2022/10/13 08:35:20;;;;;;;37.07;18.97;;;15.40;66.30;;;;;;4966890;28;46488;-83
2022/10/13 08:37:46;;;;;;;30.20;19.33;;;15.50;66.10;;;;;;4982867;28;46481;-83
2022/10/13 08:40:16;;;;;;;36.73;19.17;;;15.60;66.00;;;;;;4982990;28;46426;-85
2022/10/13 08:42:45;;;;;;;27.20;17.13;;;15.70;65.60;;;;;;4969599;28;46466;-91
2022/10/13 08:45:21;;;;;;;29.33;18.93;;;15.70;65.60;;;;;;4985850;28;46431;-85
2022/10/13 08:47:59;;;;;;;29.17;17.80;;;15.90;65.20;;;;;;4983167;28;46639;-84
2022/10/13 08:50:29;;;;;;;32.30;17.50;;;16.00;64.80;;;;;;4963727;28;48595;-83
2022/10/13 08:52:59;;;;;;;24.00;16.43;;;16.00;64.70;;;;;;4968681;28;46430;-85
2022/10/13 08:55:27;;;;;;;35.03;18.03;;;16.10;64.70;;;;;;4966314;28;46468;-85
2022/10/13 08:57:53;;;;;;;29.17;17.67;;;16.00;64.80;;;;;;4990056;28;45901;-83
2022/10/13 09:00:19;;;;;;;28.27;17.30;;;16.10;64.60;;;;;;4985671;28;47399;-84
2022/10/13 09:02:45;;;;;;;33.97;21.50;;;16.30;63.00;;;;;;4985922;28;46585;-84
2022/10/13 09:05:23;;;;;;;34.20;17.47;;;16.30;64.00;;;;;;4986617;28;46421;-83
2022/10/13 09:07:50;;;;;;;28.13;16.30;;;16.30;62.60;;;;;;4985140;28;46591;-82
2022/10/13 09:10:17;;;;;;;35.40;16.57;;;16.50;63.60;;;;;;4986701;28;48301;-82
2022/10/13 09:12:43;;;;;;;34.03;16.63;;;16.50;63.00;;;;;;4986279;28;46389;-83
2022/10/13 09:15:11;;;;;;;29.50;14.70;;;16.40;63.00;;;;;;4968182;28;46405;-84
2022/10/13 09:17:38;;;;;;;27.87;16.13;;;16.30;62.00;;;;;;4965266;28;46644;-83
2022/10/13 09:20:26;;;;;;;34.20;15.73;;;16.30;63.30;;;;;;4970273;28;48226;-84
2022/10/13 09:23:04;;;;;;;30.03;17.63;;;16.40;62.70;;;;;;4985098;28;46442;-85
2022/10/13 09:25:40;;;;;;;25.83;14.37;;;16.60;60.70;;;;;;4984492;28;46495;-84
2022/10/13 09:28:19;;;;;;;27.80;15.40;;;16.60;61.70;;;;;;4985758;28;45878;-85
2022/10/13 09:30:46;;;;;;;28.20;15.53;;;16.70;61.20;;;;;;4968352;28;49396;-85
2022/10/13 09:33:12;;;;;;;68.90;37.90;;;16.60;61.00;;;;;;4969292;28;46910;-85
2022/10/13 09:35:39;;;;;;;28.93;15.53;;;16.70;59.30;;;;;;4966209;28;46243;-85
2022/10/13 09:38:09;;;;;;;28.60;15.80;;;16.70;60.50;;;;;;4958838;28;46406;-84
2022/10/13 09:40:35;;;;;;;29.50;14.40;;;16.90;60.00;;;;;;4982058;28;48028;-85
2022/10/13 09:43:05;;;;;;;29.17;15.87;;;17.10;59.50;;;;;;4983374;28;46628;-85
2022/10/13 09:45:31;;;;;;;31.33;15.70;;;16.70;57.50;;;;;;4983567;28;46414;-85
2022/10/13 09:48:03;;;;;;;23.00;14.50;;;16.70;58.80;;;;;;4968776;28;46832;-84
2022/10/13 09:50:31;;;;;;;30.93;12.97;;;16.50;59.00;;;;;;4967963;28;48709;-82
2022/10/13 09:53:28;;;;;;;30.80;14.90;;;16.50;59.20;;;;;;4986527;28;46434;-84
2022/10/13 09:56:17;;;;;;;24.80;13.77;;;16.90;57.50;;;;;;4964705;28;46367;-84
2022/10/13 09:59:06;;;;;;;23.43;14.20;;;17.20;58.30;;;;;;4965674;28;45950;-83
2022/10/13 10:01:39;;;;;;;22.73;13.47;;;17.40;57.70;;;;;;4985223;28;46757;-84
2022/10/13 10:04:21;;;;;;;23.10;12.23;;;17.30;57.20;;;;;;4967659;28;46938;-85
2022/10/13 10:06:47;;;;;;;25.90;12.43;;;17.40;56.90;;;;;;4966256;28;46394;-83
2022/10/13 10:09:38;;;;;;;22.40;12.50;;;17.40;56.80;;;;;;4966569;28;46520;-84
2022/10/13 10:12:05;;;;;;;29.77;12.80;;;17.50;56.80;;;;;;4969097;28;48479;-83
2022/10/13 10:14:36;;;;;;;20.53;12.37;;;17.70;56.80;;;;;;4984676;28;46080;-84
2022/10/13 10:17:15;;;;;;;22.53;13.10;;;17.80;55.00;;;;;;4981777;28;46497;-84
2022/10/13 10:20:17;;;;;;;22.83;11.53;;;18.00;55.90;;;;;;4965312;28;46397;-85
2022/10/13 10:22:55;;;;;;;21.50;11.77;;;17.90;55.10;;;;;;4983372;28;46567;-84
2022/10/13 10:25:41;;;;;;;20.80;13.33;;;17.60;55.00;;;;;;4967987;28;46372;-84
2022/10/13 10:28:32;;;;;;;25.10;12.63;;;17.50;55.20;;;;;;4966922;28;46259;-86
2022/10/13 10:31:19;;;;;;;29.00;12.70;;;17.40;55.00;;;;;;4984188;28;46348;-86
2022/10/13 10:34:06;;;;;;;19.23;11.07;;;17.70;55.10;;;;;;4964805;28;48168;-85
2022/10/13 10:36:45;;;;;;;22.23;11.50;;;18.20;54.10;;;;;;4982544;28;46788;-86
2022/10/13 10:39:40;;;;;;;17.07;10.80;;;18.40;52.70;;;;;;4968463;28;46558;-86
2022/10/13 10:42:19;;;;;;;19.13;11.20;;;18.30;52.50;;;;;;4966658;28;46623;-85
2022/10/13 10:44:47;;;;;;;16.70;12.10;;;18.40;52.40;;;;;;4967063;28;48856;-84
2022/10/13 10:47:36;;;;;;;22.53;11.40;;;18.60;51.30;;;;;;4982332;28;45824;-84
2022/10/13 10:50:05;;;;;;;17.97;9.80;;;18.80;50.40;;;;;;4984721;28;46451;-84
2022/10/13 10:53:13;;;;;;;19.37;10.93;;;18.90;50.30;;;;;;4989303;28;46684;-84
2022/10/13 10:56:09;;;;;;;16.63;10.57;;;19.00;49.20;;;;;;4958476;28;48424;-83
2022/10/13 10:58:43;;;;;;;19.93;11.37;;;19.00;49.80;;;;;;4984763;28;46430;-85
2022/10/13 11:01:46;;;;;;;16.60;10.13;;;19.00;49.60;;;;;;4966719;28;46541;-86
2022/10/13 11:04:44;;;;;;;22.80;10.90;;;18.90;49.40;;;;;;4979376;28;46842;-85
2022/10/13 11:07:33;;;;;;;20.73;11.77;;;18.90;49.70;;;;;;4982575;28;48086;-86
2022/10/13 11:09:58;;;;;;;20.23;10.87;;;19.00;49.00;;;;;;4982568;28;46411;-82
2022/10/13 11:12:39;;;;;;;20.03;9.93;;;19.10;49.00;;;;;;4969973;28;46397;-84
2022/10/13 11:15:11;;;;;;;24.87;11.80;;;19.10;48.60;;;;;;4964454;28;46454;-83
2022/10/13 11:17:39;;;;;;;20.13;10.20;;;19.00;48.50;;;;;;4984764;28;47429;-83
2022/10/13 11:20:20;;;;;;;18.40;10.00;;;19.00;48.50;;;;;;4984877;28;46426;-84
2022/10/13 11:22:58;;;;;;;19.70;11.20;;;19.10;48.20;;;;;;4967850;28;46274;-84
2022/10/13 11:25:39;;;;;;;27.43;11.07;;;19.10;47.10;;;;;;4971247;28;46323;-84
2022/10/13 11:28:20;;;;;;;19.53;9.80;;;19.10;47.70;;;;;;4969144;28;48303;-87
2022/10/13 11:30:50;;;;;;;24.10;14.33;;;19.00;47.90;;;;;;4990333;28;46412;-86
2022/10/13 11:33:51;;;;;;;20.17;13.20;;;18.90;47.90;;;;;;4975303;28;46403;-83
2022/10/13 11:36:45;;;;;;;32.03;11.70;;;18.90;47.10;;;;;;4990074;28;46481;-84
2022/10/13 11:39:26;;;;;;;21.97;13.40;;;19.00;46.70;;;;;;4988142;28;47333;-84
2022/10/13 11:42:20;;;;;;;20.30;11.00;;;19.20;46.90;;;;;;4971784;28;46569;-85
2022/10/13 11:44:58;;;;;;;23.50;10.70;;;19.20;46.90;;;;;;4970822;28;46530;-85
2022/10/13 11:47:45;;;;;;;19.27;10.60;;;19.40;46.50;;;;;;4966958;28;46303;-85
2022/10/13 11:50:43;;;;;;;15.63;10.33;;;19.60;45.80;;;;;;4983701;28;46661;-84
2022/10/13 11:53:16;;;;;;;17.93;10.47;;;19.80;45.10;;;;;;4962191;28;46450;-82
2022/10/13 11:55:52;;;;;;;25.00;12.30;;;19.80;45.10;;;;;;4969334;28;46575;-85
2022/10/13 11:58:31;;;;;;;22.07;10.03;;;19.80;45.30;;;;;;4983616;28;46495;-84
2022/10/13 12:01:01;;;;;;;16.80;9.83;;;19.80;44.70;;;;;;4967597;28;48071;-84
2022/10/13 12:03:32;;;;;;;34.73;19.90;;;19.70;45.30;;;;;;4967889;28;46560;-85
2022/10/13 12:06:19;;;;;;;16.40;9.70;;;19.70;44.90;;;;;;4969988;28;46478;-85
2022/10/13 12:08:48;;;;;;;17.80;9.97;;;19.60;44.60;;;;;;4988289;28;45921;-85
2022/10/13 12:11:28;;;;;;;19.70;11.63;;;19.50;44.80;;;;;;4969170;28;48129;-85
2022/10/13 12:13:54;;;;;;;22.33;10.10;;;19.30;45.00;;;;;;4967530;28;46232;-86
2022/10/13 12:16:20;;;;;;;16.87;9.53;;;19.30;45.20;;;;;;4985257;28;46433;-83
2022/10/13 12:18:46;;;;;;;17.73;10.57;;;19.20;45.40;;;;;;4968515;28;45912;-84
2022/10/13 12:21:13;;;;;;;24.87;10.80;;;19.20;45.50;;;;;;4985599;28;46774;-85
2022/10/13 12:23:39;;;;;;;18.30;10.20;;;19.20;45.20;;;;;;4968691;28;46099;-86
2022/10/13 12:26:06;;;;;;;19.83;10.10;;;19.40;45.30;;;;;;4986622;28;46446;-83
2022/10/13 12:28:54;;;;;;;17.43;9.67;;;19.40;44.90;;;;;;4969363;28;45986;-86
2022/10/13 12:31:29;;;;;;;13.83;8.90;;;19.50;44.40;;;;;;4986547;28;46590;-84
2022/10/13 12:33:57;;;;;;;22.97;9.90;;;19.60;44.40;;;;;;4987640;28;46620;-84
2022/10/13 12:36:32;;;;;;;14.50;9.10;;;19.60;44.20;;;;;;4965358;28;46614;-85
2022/10/13 12:39:02;;;;;;;19.30;10.00;;;19.60;43.90;;;;;;4987114;28;46410;-86
2022/10/13 12:41:31;;;;;;;23.03;9.90;;;19.60;43.60;;;;;;4982901;28;47121;-89
2022/10/13 12:43:57;;;;;;;20.23;10.93;;;19.60;43.40;;;;;;4971676;28;46733;-86
2022/10/13 12:46:45;;;;;;;21.70;9.33;;;19.60;43.30;;;;;;4990676;28;46389;-86